createdAt,value
2018-04-28T00:02:34.368Z,99.90
2018-04-28T00:05:02.157Z,99.90
2018-04-28T00:07:31.737Z,99.90
2018-04-28T00:10:00.323Z,99.90
2018-04-28T00:12:28.346Z,99.90
2018-04-28T00:14:56.460Z,99.90
2018-04-28T00:17:24.437Z,99.90
2018-04-28T00:19:52.821Z,99.90
2018-04-28T00:22:27.424Z,99.90
2018-04-28T00:24:55.847Z,99.90
2018-04-28T00:27:30.267Z,99.90
2018-04-28T00:33:01.024Z,99.90
2018-04-28T00:35:30.154Z,99.90
2018-04-28T00:37:59.565Z,99.90
2018-04-28T00:43:33.443Z,99.90
2018-04-28T00:46:09.821Z,99.90
2018-04-28T00:48:39.142Z,99.90
2018-04-28T00:51:24.658Z,99.90
2018-04-28T00:54:02.150Z,99.90
2018-04-28T00:56:30.285Z,99.90
2018-04-28T00:58:58.102Z,99.90
2018-04-28T01:01:32.382Z,99.90
2018-04-28T01:07:05.417Z,99.90
2018-04-28T01:09:34.247Z,99.90
2018-04-28T01:12:02.839Z,99.90
2018-04-28T01:14:40.222Z,99.90
2018-04-28T01:17:11.715Z,99.90
2018-04-28T01:19:42.490Z,99.90
2018-04-28T01:22:10.457Z,99.90
2018-04-28T01:24:51.849Z,99.90
2018-04-28T01:27:23.442Z,99.90
2018-04-28T01:30:08.862Z,99.90
2018-04-28T01:35:50.326Z,99.90
2018-04-28T01:38:18.953Z,99.90
2018-04-28T01:40:47.858Z,99.90
2018-04-28T01:43:25.545Z,99.90
2018-04-28T01:46:11.035Z,99.90
2018-04-28T01:48:41.403Z,99.90
2018-04-28T01:51:16.248Z,99.90
2018-04-28T01:54:16.609Z,99.90
2018-04-28T01:59:54.552Z,99.90
2018-04-28T02:02:29.674Z,99.90
2018-04-28T02:04:58.835Z,99.90
2018-04-28T02:07:28.069Z,99.90
2018-04-28T02:09:55.801Z,99.90
2018-04-28T02:12:49.020Z,99.90
2018-04-28T02:15:24.550Z,99.90
2018-04-28T02:18:16.102Z,99.90
2018-04-28T02:20:57.706Z,99.90
2018-04-28T02:23:28.378Z,99.90
2018-04-28T02:25:58.673Z,99.90
2018-04-28T02:28:31.982Z,99.90
2018-04-28T02:31:00.783Z,99.90
2018-04-28T02:33:29.460Z,99.90
2018-04-28T02:35:58.818Z,99.90
2018-04-28T02:38:35.343Z,99.90
2018-04-28T02:41:23.545Z,99.90
2018-04-28T02:43:54.289Z,99.90
2018-04-28T02:46:23.551Z,99.90
2018-04-28T02:51:51.239Z,99.90
2018-04-28T02:54:27.450Z,99.90
2018-04-28T02:57:02.936Z,99.90
2018-04-28T02:59:37.220Z,99.90
2018-04-28T03:02:10.654Z,99.90
2018-04-28T03:04:40.288Z,99.90
2018-04-28T03:10:39.693Z,99.90
2018-04-28T03:13:16.946Z,99.90
2018-04-28T03:15:44.686Z,99.90
2018-04-28T03:18:12.481Z,99.90
2018-04-28T03:20:45.254Z,99.90
2018-04-28T03:23:19.849Z,99.90
2018-04-28T03:25:47.727Z,99.90
2018-04-28T03:28:23.173Z,99.90
2018-04-28T03:30:56.389Z,99.90
2018-04-28T03:33:30.181Z,99.90
2018-04-28T03:39:28.911Z,99.90
2018-04-28T03:41:58.476Z,99.90
2018-04-28T03:47:50.993Z,99.90
2018-04-28T03:50:25.390Z,99.90
2018-04-28T03:52:53.237Z,99.90
2018-04-28T03:55:22.613Z,99.90
2018-04-28T03:58:02.781Z,99.90
2018-04-28T04:00:42.227Z,99.90
2018-04-28T04:03:30.182Z,99.90
2018-04-28T04:06:09.667Z,99.90
2018-04-28T04:08:42.147Z,99.90
2018-04-28T04:11:21.739Z,99.90
2018-04-28T04:13:50.941Z,99.90
2018-04-28T04:16:36.077Z,99.90
2018-04-28T04:22:34.739Z,99.90
2018-04-28T04:28:05.167Z,99.90
2018-04-28T04:34:05.638Z,99.90
2018-04-28T04:36:50.259Z,99.90
2018-04-28T04:39:38.420Z,99.90
2018-04-28T04:45:38.493Z,99.90
2018-04-28T04:48:18.904Z,99.90
2018-04-28T04:51:09.009Z,99.90
2018-04-28T04:57:18.750Z,99.90
2018-04-28T05:00:08.321Z,99.90
2018-04-28T05:06:00.205Z,99.90
2018-04-28T05:23:04.806Z,99.90
2018-04-28T05:29:05.951Z,99.90
2018-04-28T05:31:55.255Z,99.90
2018-04-28T05:34:31.550Z,99.90
2018-04-28T05:37:11.018Z,99.90
2018-04-28T05:42:53.820Z,99.90
2018-04-28T05:59:38.750Z,99.90
2018-04-28T06:02:27.350Z,99.90
2018-04-28T06:05:06.829Z,99.90
2018-04-28T06:10:54.577Z,99.90
2018-04-28T06:13:41.063Z,99.90
2018-04-28T06:16:13.668Z,99.90
2018-04-28T06:21:50.540Z,99.90
2018-04-28T06:24:18.306Z,99.90
2018-04-28T06:26:46.090Z,99.90
2018-04-28T06:29:14.756Z,99.90
2018-04-28T06:31:42.595Z,99.90
2018-04-28T06:34:10.409Z,99.90
2018-04-28T06:36:38.206Z,99.90
2018-04-28T06:39:06.366Z,99.90
2018-04-28T06:41:34.144Z,99.90
2018-04-28T06:44:02.719Z,99.90
2018-04-28T06:46:30.508Z,99.90
2018-04-28T06:48:58.313Z,99.90
2018-04-28T06:51:26.399Z,99.90
2018-04-28T06:53:54.896Z,99.90
2018-04-28T06:56:22.750Z,99.90
2018-04-28T06:58:50.524Z,99.90
2018-04-28T07:01:19.788Z,99.90
2018-04-28T07:03:47.596Z,99.90
2018-04-28T07:06:15.413Z,99.90
2018-04-28T07:08:43.822Z,99.90
2018-04-28T07:11:11.594Z,99.90
2018-04-28T07:13:39.404Z,99.90
2018-04-28T07:16:15.622Z,99.90
2018-04-28T07:18:44.267Z,99.90
2018-04-28T07:21:12.458Z,99.90
2018-04-28T07:23:41.035Z,99.90
2018-04-28T07:26:08.770Z,99.90
2018-04-28T07:28:36.522Z,99.90
2018-04-28T07:31:04.570Z,99.90
2018-04-28T07:36:03.176Z,99.90
2018-04-28T07:38:32.120Z,99.90
2018-04-28T07:41:01.013Z,99.90
2018-04-28T07:43:28.806Z,99.90
2018-04-28T07:45:56.628Z,99.90
2018-04-28T07:48:24.992Z,99.90
2018-04-28T07:50:53.905Z,99.90
2018-04-28T07:55:51.482Z,99.90
2018-04-28T08:03:18.046Z,99.90
2018-04-28T08:05:46.189Z,99.90
2018-04-28T08:08:13.994Z,99.90
2018-04-28T08:10:42.131Z,99.90
2018-04-28T08:23:09.862Z,99.90
2018-04-28T08:25:37.730Z,99.90
2018-04-28T08:28:05.292Z,99.90
2018-04-28T08:30:33.090Z,99.90
2018-04-28T08:33:00.861Z,99.90
2018-04-28T08:35:28.657Z,99.90
2018-04-28T08:37:56.460Z,99.90
2018-04-28T08:40:24.542Z,99.90
2018-04-28T08:42:52.307Z,99.90
2018-04-28T08:45:19.956Z,99.90
2018-04-28T08:47:49.666Z,99.90
2018-04-28T08:50:18.079Z,99.90
2018-04-28T09:00:25.812Z,99.90
2018-04-28T09:02:54.264Z,99.90
2018-04-28T09:05:22.728Z,99.90
2018-04-28T09:07:53.913Z,99.90
2018-04-28T09:10:22.691Z,99.90
2018-04-28T09:12:52.054Z,99.90
2018-04-28T09:15:20.493Z,99.90
2018-04-28T09:17:48.978Z,99.90
2018-04-28T09:20:36.295Z,99.90
2018-04-28T09:23:04.956Z,99.90
2018-04-28T09:25:33.475Z,99.90
2018-04-28T09:28:01.978Z,99.90
2018-04-28T09:30:30.531Z,99.90
2018-04-28T09:32:59.357Z,99.90
2018-04-28T09:35:29.071Z,99.90
2018-04-28T09:37:59.092Z,99.90
2018-04-28T09:40:28.301Z,99.90
2018-04-28T09:42:56.850Z,99.90
2018-04-28T09:45:25.397Z,99.90
2018-04-28T09:47:53.865Z,99.90
2018-04-28T09:50:22.326Z,99.90
2018-04-28T09:52:50.810Z,99.90
2018-04-28T09:55:19.303Z,99.90
2018-04-28T09:58:00.073Z,99.90
2018-04-28T10:00:35.463Z,99.90
2018-04-28T10:03:06.203Z,99.90
2018-04-28T10:05:34.670Z,99.90
2018-04-28T10:08:03.146Z,99.90
2018-04-28T10:10:31.636Z,99.90
2018-04-28T10:13:00.079Z,99.90
2018-04-28T10:15:28.559Z,99.90
2018-04-28T10:17:57.006Z,99.90
2018-04-28T10:20:25.539Z,99.90
2018-04-28T10:22:54.066Z,99.90
2018-04-28T10:25:22.771Z,99.90
2018-04-28T10:27:51.277Z,99.90
2018-04-28T10:30:19.729Z,99.90
2018-04-28T10:32:49.043Z,99.90
2018-04-28T10:35:17.506Z,99.90
2018-04-28T10:37:45.912Z,99.90
2018-04-28T10:40:14.349Z,99.90
2018-04-28T10:42:42.813Z,99.90
2018-04-28T10:45:11.286Z,99.90
2018-04-28T10:47:39.739Z,99.90
2018-04-28T10:50:08.233Z,99.90
2018-04-28T10:52:36.698Z,99.90
2018-04-28T10:55:17.962Z,99.20
2018-04-28T10:57:46.656Z,99.20
2018-04-28T11:00:15.119Z,96.40
2018-04-28T11:02:44.417Z,96.00
2018-04-28T11:05:12.878Z,93.00
2018-04-28T11:07:41.294Z,94.00
2018-04-28T11:10:10.664Z,93.90
2018-04-28T11:12:39.132Z,93.90
2018-04-28T11:15:07.629Z,93.20
2018-04-28T11:17:36.174Z,94.60
2018-04-28T11:20:04.199Z,94.80
2018-04-28T11:22:33.522Z,92.70
2018-04-28T11:25:02.676Z,92.70
2018-04-28T11:27:31.358Z,92.00
2018-04-28T11:29:59.777Z,92.10
2018-04-28T11:32:28.178Z,92.60
2018-04-28T11:34:56.609Z,94.50
2018-04-28T11:37:24.765Z,93.20
2018-04-28T11:39:53.212Z,92.40
2018-04-28T11:42:21.621Z,91.10
2018-04-28T11:44:50.009Z,91.10
2018-04-28T11:47:18.406Z,90.70
2018-04-28T11:49:46.801Z,90.90
2018-04-28T11:52:15.233Z,90.00
2018-04-28T11:54:44.497Z,92.00
2018-04-28T11:57:13.027Z,91.90
2018-04-28T11:59:41.540Z,93.00
2018-04-28T12:02:10.017Z,92.80
2018-04-28T12:04:38.516Z,92.90
2018-04-28T12:07:07.043Z,91.70
2018-04-28T12:09:35.189Z,93.10
2018-04-28T12:12:04.830Z,91.90
2018-04-28T12:14:33.271Z,91.80
2018-04-28T12:17:01.924Z,93.40
2018-04-28T12:19:30.383Z,92.60
2018-04-28T12:21:58.808Z,91.50
2018-04-28T12:24:30.964Z,91.20
2018-04-28T12:26:59.445Z,90.90
2018-04-28T12:29:28.662Z,90.20
2018-04-28T12:31:57.132Z,90.20
2018-04-28T12:34:25.630Z,92.10
2018-04-28T12:36:54.133Z,91.80
2018-04-28T12:39:22.630Z,91.60
2018-04-28T12:41:51.056Z,91.30
2018-04-28T12:44:19.509Z,90.60
2018-04-28T12:46:47.991Z,88.30
2018-04-28T12:49:16.559Z,89.50
2018-04-28T12:51:45.043Z,90.90
2018-04-28T12:54:13.540Z,91.30
2018-04-28T12:56:42.065Z,91.20
2018-04-28T12:59:10.545Z,91.10
2018-04-28T13:01:39.241Z,89.40
2018-04-28T13:04:09.730Z,90.00
2018-04-28T13:06:38.218Z,88.60
2018-04-28T13:09:06.391Z,90.20
2018-04-28T13:11:34.883Z,90.00
2018-04-28T13:14:07.945Z,90.40
2018-04-28T13:16:36.602Z,90.20
2018-04-28T13:19:04.839Z,90.40
2018-04-28T13:21:33.372Z,90.30
2018-04-28T13:24:01.863Z,90.10
2018-04-28T13:26:38.651Z,90.40
2018-04-28T13:29:07.222Z,91.20
2018-04-28T13:31:35.797Z,90.00
2018-04-28T13:34:04.306Z,90.10
2018-04-28T13:36:32.814Z,91.70
2018-04-28T13:39:01.356Z,89.40
2018-04-28T13:41:34.300Z,88.50
2018-04-28T13:44:08.244Z,88.00
2018-04-28T13:46:41.137Z,87.90
2018-04-28T13:49:17.395Z,88.00
2018-04-28T13:51:45.971Z,86.30
2018-04-28T13:54:14.457Z,85.20
2018-04-28T13:56:44.763Z,86.90
2018-04-28T13:59:13.263Z,87.50
2018-04-28T14:01:43.881Z,85.80
2018-04-28T14:04:12.381Z,87.00
2018-04-28T14:06:40.687Z,86.00
2018-04-28T14:09:08.939Z,86.20
2018-04-28T14:11:37.403Z,84.00
2018-04-28T14:14:05.892Z,84.50
2018-04-28T14:16:34.382Z,84.00
2018-04-28T14:19:02.973Z,88.40
2018-04-28T14:21:31.489Z,85.90
2018-04-28T14:24:04.693Z,86.10
2018-04-28T14:26:33.237Z,85.00
2018-04-28T14:29:01.467Z,86.30
2018-04-28T14:31:29.978Z,85.60
2018-04-28T14:33:58.476Z,85.00
2018-04-28T14:36:26.971Z,85.90
2018-04-28T14:38:55.443Z,85.70
2018-04-28T14:41:23.881Z,85.00
2018-04-28T14:43:52.389Z,87.40
2018-04-28T14:46:20.888Z,86.50
2018-04-28T14:48:49.426Z,84.70
2018-04-28T14:51:17.865Z,86.20
2018-04-28T14:53:46.407Z,84.30
2018-04-28T14:56:14.905Z,85.30
2018-04-28T14:58:43.373Z,86.30
2018-04-28T15:01:12.607Z,86.70
2018-04-28T15:03:41.319Z,86.50
2018-04-28T15:06:09.808Z,88.30
2018-04-28T15:08:38.292Z,86.90
2018-04-28T15:11:11.209Z,87.10
2018-04-28T15:13:40.486Z,84.40
2018-04-28T15:16:09.756Z,84.90
2018-04-28T15:18:38.282Z,84.90
2018-04-28T15:21:06.745Z,83.60
2018-04-28T15:23:35.261Z,84.70
2018-04-28T15:26:04.017Z,85.60
2018-04-28T15:28:32.644Z,86.50
2018-04-28T15:31:01.166Z,87.10
2018-04-28T15:33:30.648Z,89.90
2018-04-28T15:35:59.157Z,89.90
2018-04-28T15:38:27.734Z,89.60
2018-04-28T15:40:56.215Z,89.50
2018-04-28T15:46:30.543Z,87.10
2018-04-28T15:52:21.438Z,86.60
2018-04-28T15:54:49.953Z,87.50
2018-04-28T15:57:18.411Z,89.00
2018-04-28T15:59:46.898Z,87.40
2018-04-28T16:02:15.364Z,87.20
2018-04-28T16:04:44.638Z,88.20
2018-04-28T16:07:14.249Z,88.20
2018-04-28T16:09:42.751Z,88.50
2018-04-28T16:12:11.369Z,86.40
2018-04-28T16:14:39.937Z,86.90
2018-04-28T16:17:08.456Z,86.80
2018-04-28T16:19:36.934Z,87.00
2018-04-28T16:22:05.403Z,89.00
2018-04-28T16:24:33.891Z,87.70
2018-04-28T16:27:05.122Z,88.80
2018-04-28T16:29:36.104Z,88.60
2018-04-28T16:32:04.569Z,88.60
2018-04-28T16:34:33.813Z,87.80
2018-04-28T16:37:15.245Z,87.70
2018-04-28T16:39:43.870Z,88.50
2018-04-28T16:42:13.202Z,88.70
2018-04-28T16:44:44.754Z,91.70
2018-04-28T16:47:18.878Z,90.20
2018-04-28T16:49:47.190Z,89.50
2018-04-28T16:52:15.754Z,88.60
2018-04-28T16:54:44.901Z,88.60
2018-04-28T16:57:13.888Z,90.60
2018-04-28T16:59:42.446Z,90.90
2018-04-28T17:02:10.886Z,90.60
2018-04-28T17:04:50.442Z,91.20
2018-04-28T17:07:19.113Z,90.70
2018-04-28T17:09:48.644Z,85.00
2018-04-28T17:12:17.146Z,85.00
2018-04-28T17:14:45.663Z,90.20
2018-04-28T17:17:13.532Z,90.50
2018-04-28T17:19:42.206Z,90.60
2018-04-28T17:22:10.732Z,92.50
2018-04-28T17:24:45.366Z,90.70
2018-04-28T17:27:13.923Z,90.10
2018-04-28T17:29:42.423Z,89.10
2018-04-28T17:32:10.518Z,87.90
2018-04-28T17:34:39.711Z,90.80
2018-04-28T17:37:08.239Z,90.80
2018-04-28T17:39:36.703Z,90.80
2018-04-28T17:42:05.261Z,90.90
2018-04-28T17:44:52.942Z,91.10
2018-04-28T17:47:21.359Z,91.40
2018-04-28T17:49:50.594Z,92.60
2018-04-28T17:52:18.994Z,92.60
2018-04-28T17:54:49.604Z,92.60
2018-04-28T17:57:18.141Z,93.20
2018-04-28T17:59:51.193Z,93.50
2018-04-28T18:02:20.149Z,94.40
2018-04-28T18:04:48.735Z,94.00
2018-04-28T18:07:17.293Z,94.40
2018-04-28T18:09:45.873Z,95.00
2018-04-28T18:12:23.785Z,95.50
2018-04-28T18:14:52.187Z,95.90
2018-04-28T18:17:20.901Z,95.60
2018-04-28T18:19:53.558Z,95.90
2018-04-28T18:22:23.216Z,95.90
2018-04-28T18:24:51.909Z,96.30
2018-04-28T18:27:20.330Z,96.10
2018-04-28T18:29:48.749Z,96.40
2018-04-28T18:32:17.179Z,96.70
2018-04-28T18:34:45.659Z,97.00
2018-04-28T18:37:14.274Z,96.60
2018-04-28T18:39:43.183Z,97.20
2018-04-28T18:42:12.368Z,97.30
2018-04-28T18:44:40.763Z,97.20
2018-04-28T18:47:09.347Z,97.00
2018-04-28T18:49:37.757Z,97.80
2018-04-28T18:52:06.132Z,98.10
2018-04-28T18:54:34.603Z,99.20
2018-04-28T18:57:05.478Z,99.50
2018-04-28T18:59:34.585Z,99.90
2018-04-28T19:02:03.027Z,98.70
2018-04-28T19:04:31.501Z,98.70
2018-04-28T19:07:03.705Z,98.50
2018-04-28T19:09:32.115Z,98.50
2018-04-28T19:12:00.622Z,98.50
2018-04-28T19:14:29.036Z,99.00
2018-04-28T19:16:57.670Z,98.70
2018-04-28T19:19:27.250Z,99.20
2018-04-28T19:21:55.649Z,99.50
2018-04-28T19:24:24.138Z,99.40
2018-04-28T19:26:52.685Z,99.30
2018-04-28T19:29:21.194Z,99.40
2018-04-28T19:34:26.737Z,99.60
2018-04-28T19:36:55.205Z,99.90
2018-04-28T19:39:23.626Z,99.90
2018-04-28T19:41:52.027Z,99.90
2018-04-28T19:44:20.267Z,99.90
2018-04-28T19:46:48.710Z,99.90
2018-04-28T19:49:17.227Z,99.90
2018-04-28T19:51:45.666Z,99.90
2018-04-28T19:54:14.052Z,99.90
2018-04-28T19:56:42.515Z,99.90
2018-04-28T19:59:11.030Z,99.90
2018-04-28T20:01:39.609Z,99.90
2018-04-28T20:04:08.187Z,99.90
2018-04-28T20:06:36.713Z,99.90
2018-04-28T20:09:04.518Z,99.90
2018-04-28T20:11:33.044Z,99.90
2018-04-28T20:14:01.483Z,99.90
2018-04-28T20:16:30.085Z,99.90
2018-04-28T20:19:08.334Z,99.90
2018-04-28T20:21:37.103Z,99.90
2018-04-28T20:24:17.041Z,99.90
2018-04-28T20:26:45.717Z,99.90
2018-04-28T20:29:15.699Z,99.90
2018-04-28T20:31:44.129Z,99.90
2018-04-28T20:34:12.275Z,99.90
2018-04-28T20:36:40.749Z,99.90
2018-04-28T20:39:09.346Z,99.90
2018-04-28T20:41:37.839Z,99.90
2018-04-28T20:44:06.420Z,99.90
2018-04-28T20:46:34.983Z,99.90
2018-04-28T20:49:03.445Z,99.90
2018-04-28T20:51:31.638Z,99.90
2018-04-28T20:54:03.927Z,99.90
2018-04-28T20:56:32.535Z,99.90
2018-04-28T20:59:00.966Z,99.90
2018-04-28T21:01:29.462Z,99.90
2018-04-28T21:03:57.954Z,99.90
2018-04-28T21:06:26.440Z,99.90
2018-04-28T21:08:55.698Z,99.90
2018-04-28T21:11:24.178Z,99.90
2018-04-28T21:13:52.686Z,99.90
2018-04-28T21:16:21.113Z,99.90
2018-04-28T21:18:50.067Z,99.90
2018-04-28T21:21:18.547Z,99.90
2018-04-28T21:23:47.120Z,99.90
2018-04-28T21:26:15.655Z,99.90
2018-04-28T21:28:44.133Z,99.90
2018-04-28T21:31:16.668Z,99.90
2018-04-28T21:33:45.596Z,99.90
2018-04-28T21:36:14.156Z,99.90
2018-04-28T21:38:42.658Z,99.90
2018-04-28T21:41:11.216Z,99.90
2018-04-28T21:43:39.682Z,99.90
2018-04-28T21:46:08.154Z,99.90
2018-04-28T21:48:36.598Z,99.90
2018-04-28T21:51:08.354Z,99.90
2018-04-28T21:53:36.772Z,99.90
2018-04-28T21:56:04.607Z,99.90
2018-04-28T21:58:33.126Z,99.90
2018-04-28T22:01:01.611Z,99.90
2018-04-28T22:03:30.701Z,99.90
2018-04-28T22:05:59.181Z,99.90
2018-04-28T22:08:27.647Z,99.90
2018-04-28T22:10:56.887Z,99.90
2018-04-28T22:13:26.423Z,99.90
2018-04-28T22:15:54.918Z,99.90
2018-04-28T22:18:24.239Z,99.90
2018-04-28T22:20:52.646Z,99.90
2018-04-28T22:23:21.082Z,99.90
2018-04-28T22:25:49.575Z,99.90
2018-04-28T22:28:18.062Z,99.90
2018-04-28T22:30:46.507Z,99.90
2018-04-28T22:33:14.942Z,99.90
2018-04-28T22:35:43.532Z,99.90
2018-04-28T22:38:12.005Z,99.90
2018-04-28T22:40:40.633Z,99.90
2018-04-28T22:43:09.114Z,99.90
2018-04-28T22:45:37.562Z,99.90
2018-04-28T22:48:06.841Z,99.90
2018-04-28T22:50:35.680Z,99.90
2018-04-28T22:53:04.175Z,99.90
2018-04-28T22:55:33.445Z,99.90
2018-04-28T22:58:01.866Z,99.90
2018-04-28T23:00:29.753Z,99.90
2018-04-28T23:02:58.405Z,99.90
2018-04-28T23:05:26.955Z,99.90
2018-04-28T23:07:55.422Z,99.90
2018-04-28T23:10:23.864Z,99.90
2018-04-28T23:12:52.362Z,99.90
2018-04-28T23:15:20.779Z,99.90
2018-04-28T23:17:49.199Z,99.90
2018-04-28T23:20:17.634Z,99.90
2018-04-28T23:22:46.066Z,99.90
2018-04-28T23:25:14.485Z,99.90
2018-04-28T23:27:42.904Z,99.90
2018-04-28T23:30:12.204Z,99.90
2018-04-28T23:32:41.416Z,99.90
2018-04-28T23:35:10.594Z,99.90
2018-04-28T23:37:39.035Z,99.90
2018-04-28T23:40:07.549Z,99.90
2018-04-28T23:42:36.486Z,99.90
2018-04-28T23:45:05.088Z,99.90
2018-04-28T23:47:33.706Z,99.90
2018-04-28T23:50:02.214Z,99.90
2018-04-28T23:52:31.222Z,99.90
2018-04-28T23:55:00.359Z,99.90
2018-04-28T23:57:28.810Z,99.90
2018-04-28T23:59:57.227Z,99.90
